Huvudsida
METAR-TAF:

METAR-TAF

Flygplatser :

Shanghai Hongqiao International Airport

Shanghai-Hongqiao, Kina

latitud: 31-10N, longitud: 121-26E, höjd: 7 m

Aktuellt väderrapport

Denna rapport gjordes för 24 minuter sedan, klockan 07:00 UTC
Vind 14 kt från sydost
Temperatur 32°C
Fuktighet 67%
Tryck 1003 hPa
Sikt 10 km eller mer
Spridda moln på en höjd av 3000 ft

METAR: ZSSS 190700Z 13007MPS 9999 SCT030 32/25 Q1003 NOSIG

Tid: 15:24 (07:24 UTC)

Väderprognos

Denna rapport gjordes för 4 timmar och 9 minuter sedan, klockan 03:15 UTC
Prognos gäller från 19 kl. 06 UTC till 20 kl. 06 UTC
Vind 10 kt från ost/sydost
Sikt: 6000 m
Brutna moln på en höjd av 2000 ft

TAF: ZSSS 190315Z 1906/2006 12005MPS 6000 BKN020 TX33/1906Z TN27/1921Z

Aktuella väderrapporter och prognoser från 4000 flygplatser (METAR- och TAF-rapporter).

De tillgängliga stationerna syns som gula och röda prickar på kartan.

För musen över prickarna för att se namnen på stationerna.

Klicka sedan för att få väderrapporter och prognoser.

För att ändra kartan: Klicka på de gröna knapparna med ett svart kors på för att zooma in; den gröna knappen med ett streck på för att zooma ut; eller på de gröna pilarna för angränsande kartor.


METAR-TAF: